Time;durP1;ratioP1;P1;durP2;ratioP2;P2;SDS_P1;SDS_P2;PMS_P1;PMS_P2;Temp;Humidity;BMP_temperature;BMP_pressure;BME280_temperature;BME280_humidity;BME280_pressure;Samples;Min_cycle;Max_cycle;Signal;HPM_P1;HPM_P2
2022/04/21 00:00:13;;;;;;;11.75;5.82;;;9.10;86.70;;;;;;5008012;28;20049;-43
2022/04/21 00:02:40;;;;;;;8.50;6.00;;;9.00;87.20;;;;;;5014499;28;20056;-43
2022/04/21 00:05:08;;;;;;;11.68;5.60;;;9.00;88.30;;;;;;5014827;28;20048;-43
2022/04/21 00:07:34;;;;;;;10.07;5.93;;;8.90;88.20;;;;;;5002376;28;20402;-43
2022/04/21 00:10:01;;;;;;;9.55;5.95;;;8.90;88.60;;;;;;5009994;28;20052;-43
2022/04/21 00:12:28;;;;;;;8.43;5.45;;;8.90;88.90;;;;;;5009073;28;20056;-43
2022/04/21 00:14:55;;;;;;;9.30;5.78;;;8.80;89.20;;;;;;5005612;28;20481;-43
2022/04/21 00:17:24;;;;;;;10.85;5.88;;;8.80;89.70;;;;;;5009974;28;20125;-43
2022/04/21 00:19:50;;;;;;;11.93;6.65;;;8.80;90.10;;;;;;5003638;28;20541;-44
2022/04/21 00:25:02;;;;;;;11.90;6.05;;;8.70;90.30;;;;;;5012234;28;20520;-43
2022/04/21 00:27:29;;;;;;;11.60;5.78;;;8.70;90.20;;;;;;5006611;28;20446;-44
2022/04/21 00:29:57;;;;;;;12.07;6.55;;;8.70;90.40;;;;;;5006010;28;20046;-43
2022/04/21 00:32:25;;;;;;;8.13;6.10;;;8.70;90.50;;;;;;5011031;28;20414;-43
2022/04/21 00:34:51;;;;;;;8.30;5.32;;;8.70;90.50;;;;;;5009917;28;20050;-43
2022/04/21 00:37:18;;;;;;;9.05;5.78;;;8.60;90.10;;;;;;5002849;28;20057;-43
2022/04/21 00:39:45;;;;;;;7.75;4.85;;;8.70;90.10;;;;;;5010336;28;20050;-44
2022/04/21 00:42:11;;;;;;;7.30;4.63;;;8.70;89.70;;;;;;5002029;28;20042;-43
2022/04/21 00:44:38;;;;;;;7.40;5.25;;;8.60;89.10;;;;;;5002525;28;20046;-44
2022/04/21 00:47:06;;;;;;;12.18;6.20;;;8.70;88.50;;;;;;5000201;28;20508;-43
2022/04/21 00:49:34;;;;;;;9.55;4.97;;;8.70;88.60;;;;;;4998743;28;20058;-43
2022/04/21 00:52:00;;;;;;;10.65;5.70;;;8.70;88.50;;;;;;5003342;28;20054;-44
2022/04/21 00:54:29;;;;;;;12.02;6.35;;;8.60;88.60;;;;;;5004666;28;20311;-43
2022/04/21 00:56:56;;;;;;;11.52;6.47;;;8.70;89.50;;;;;;5011567;28;20132;-43
2022/04/21 00:59:22;;;;;;;11.57;6.93;;;8.60;89.80;;;;;;5009875;28;20068;-43
2022/04/21 01:04:34;;;;;;;8.75;4.82;;;8.60;90.20;;;;;;5006048;28;20491;-43
2022/04/21 01:07:01;;;;;;;16.98;6.97;;;8.50;90.00;;;;;;5003963;28;20050;-43
2022/04/21 01:09:28;;;;;;;8.00;5.07;;;8.50;90.10;;;;;;5012763;28;20397;-43
2022/04/21 01:11:54;;;;;;;7.47;5.05;;;8.40;90.00;;;;;;5005293;28;20128;-43
2022/04/21 01:14:21;;;;;;;10.50;5.85;;;8.40;89.70;;;;;;5009069;28;20407;-44
2022/04/21 01:16:48;;;;;;;8.95;5.35;;;8.40;89.50;;;;;;5006864;28;20045;-44
2022/04/21 01:19:14;;;;;;;11.80;6.28;;;8.40;88.90;;;;;;5011162;28;20053;-43
2022/04/21 01:21:44;;;;;;;11.27;5.70;;;8.40;88.80;;;;;;5000301;28;20536;-44
2022/04/21 01:24:10;;;;;;;8.98;4.97;;;8.40;88.80;;;;;;5010997;28;20056;-42
2022/04/21 01:26:37;;;;;;;12.60;5.53;;;8.30;88.30;;;;;;5010187;28;20475;-42
2022/04/21 01:29:05;;;;;;;9.02;6.70;;;8.30;89.20;;;;;;5014839;28;20054;-43
2022/04/21 01:31:31;;;;;;;11.23;6.78;;;8.30;90.10;;;;;;5008103;28;20747;-42
2022/04/21 01:33:58;;;;;;;10.77;5.68;;;8.20;90.40;;;;;;4999166;28;20046;-43
2022/04/21 01:36:25;;;;;;;9.73;6.78;;;8.20;90.30;;;;;;5012294;28;20046;-43
2022/04/21 01:41:34;;;;;;;;;;;8.10;91.00;;;;;;4998706;28;20501;-43
2022/04/21 01:44:01;;;;;;;8.48;5.78;;;8.00;90.40;;;;;;5006671;28;19928;-43
2022/04/21 01:46:27;;;;;;;9.82;6.40;;;8.00;90.90;;;;;;5011644;28;20077;-43
2022/04/21 01:48:54;;;;;;;12.88;6.25;;;8.00;91.10;;;;;;5011629;28;20058;-43
2022/04/21 01:51:21;;;;;;;8.98;5.80;;;8.00;91.20;;;;;;4996859;28;20058;-43
2022/04/21 01:53:47;;;;;;;13.80;7.47;;;7.90;91.20;;;;;;5023550;28;20050;-43
2022/04/21 01:56:15;;;;;;;10.63;6.82;;;7.90;91.50;;;;;;5002045;28;20093;-42
2022/04/21 01:58:42;;;;;;;11.65;7.65;;;7.90;91.70;;;;;;5007351;28;20053;-43
2022/04/21 02:01:09;;;;;;;11.00;6.75;;;7.90;91.80;;;;;;5012183;28;20096;-43
2022/04/21 02:03:36;;;;;;;9.43;6.53;;;7.90;91.90;;;;;;5009063;28;20425;-43
2022/04/21 02:06:02;;;;;;;8.23;5.65;;;7.90;91.80;;;;;;5003319;28;20061;-43
2022/04/21 02:08:29;;;;;;;14.98;7.60;;;7.80;91.40;;;;;;5008727;28;20057;-43
2022/04/21 02:10:56;;;;;;;10.50;6.90;;;7.80;91.60;;;;;;5008569;28;20132;-43
2022/04/21 02:13:24;;;;;;;14.82;7.30;;;7.80;92.00;;;;;;5002430;28;20050;-43
2022/04/21 02:15:50;;;;;;;14.43;8.27;;;7.70;92.10;;;;;;5003626;28;20152;-43
2022/04/21 02:18:17;;;;;;;9.57;6.95;;;7.70;92.50;;;;;;5001794;28;20049;-42
2022/04/21 02:20:44;;;;;;;12.57;7.88;;;7.70;92.80;;;;;;5013999;28;20057;-43
2022/04/21 02:23:10;;;;;;;14.43;9.02;;;7.70;92.90;;;;;;5007724;28;20479;-43
2022/04/21 02:25:37;;;;;;;12.90;8.43;;;7.70;93.70;;;;;;5010722;28;20068;-43
2022/04/21 02:28:04;;;;;;;13.55;8.55;;;7.60;93.80;;;;;;5009165;28;20060;-43
2022/04/21 02:30:32;;;;;;;15.90;9.80;;;7.60;94.10;;;;;;5001880;28;20390;-43
2022/04/21 02:32:59;;;;;;;14.40;9.60;;;7.50;94.30;;;;;;5010534;28;20048;-43
2022/04/21 02:35:25;;;;;;;13.48;8.60;;;7.50;94.60;;;;;;5014423;28;20129;-43
2022/04/21 02:37:52;;;;;;;12.27;8.25;;;7.50;94.70;;;;;;5011569;28;20049;-43
2022/04/21 02:40:19;;;;;;;16.45;9.23;;;7.50;94.40;;;;;;5011073;28;20053;-43
2022/04/21 02:42:46;;;;;;;15.07;8.93;;;7.50;94.60;;;;;;5011190;28;20056;-43
2022/04/21 02:45:13;;;;;;;10.85;8.02;;;7.50;94.90;;;;;;5005379;28;20125;-43
2022/04/21 02:47:42;;;;;;;13.57;8.63;;;7.40;94.60;;;;;;4999096;28;20042;-43
2022/04/21 02:50:11;;;;;;;12.20;8.48;;;7.50;94.30;;;;;;5012143;28;20050;-43
2022/04/21 02:52:38;;;;;;;16.08;8.20;;;7.40;94.10;;;;;;5002104;28;20081;-44
2022/04/21 02:57:50;;;;;;;11.10;7.70;;;7.40;94.10;;;;;;5007119;28;20049;-44
2022/04/21 03:00:16;;;;;;;11.45;7.93;;;7.40;93.80;;;;;;5004734;28;20061;-44
2022/04/21 03:02:44;;;;;;;11.02;7.50;;;7.40;93.70;;;;;;5003339;28;20050;-44
2022/04/21 03:05:12;;;;;;;9.38;7.13;;;7.40;93.50;;;;;;5005039;28;20046;-44
2022/04/21 03:07:39;;;;;;;12.82;7.90;;;7.30;93.20;;;;;;5011311;28;20041;-44
2022/04/21 03:10:07;;;;;;;12.85;8.85;;;7.30;93.40;;;;;;5011682;28;20125;-44
2022/04/21 03:12:33;;;;;;;11.40;7.53;;;7.30;93.50;;;;;;5001898;28;20058;-44
2022/04/21 03:15:01;;;;;;;11.25;6.97;;;7.30;93.60;;;;;;5001112;28;20042;-44
2022/04/21 03:17:29;;;;;;;10.55;7.95;;;7.20;93.30;;;;;;5005681;28;20057;-44
2022/04/21 03:19:57;;;;;;;14.32;8.30;;;7.20;93.40;;;;;;5010157;28;20057;-44
2022/04/21 03:25:10;;;;;;;14.50;9.07;;;7.20;93.90;;;;;;4996858;28;20050;-43
2022/04/21 03:27:36;;;;;;;14.43;10.00;;;7.10;94.10;;;;;;5005440;28;20100;-44
2022/04/21 03:30:05;;;;;;;16.58;9.75;;;7.10;94.60;;;;;;5005830;28;20096;-44
2022/04/21 03:32:32;;;;;;;16.08;9.73;;;7.10;95.10;;;;;;5016749;28;20050;-43
2022/04/21 03:35:00;;;;;;;16.17;9.95;;;7.10;95.40;;;;;;4999529;28;20054;-44
2022/04/21 03:37:27;;;;;;;16.23;10.48;;;7.00;95.60;;;;;;5005528;28;20112;-44
2022/04/21 03:39:54;;;;;;;11.95;8.23;;;7.00;95.90;;;;;;5008114;28;20054;-43
2022/04/21 03:42:23;;;;;;;13.85;10.13;;;7.00;95.70;;;;;;5004355;28;20365;-44
2022/04/21 03:44:50;;;;;;;14.20;9.80;;;6.90;95.90;;;;;;5005128;28;20453;-43
2022/04/21 03:47:16;;;;;;;17.00;9.48;;;6.90;95.90;;;;;;5013162;28;20038;-44
2022/04/21 03:49:43;;;;;;;12.63;8.48;;;6.90;96.00;;;;;;5012029;28;20050;-43
2022/04/21 03:52:11;;;;;;;11.90;8.20;;;6.90;95.70;;;;;;5000942;28;20538;-44
2022/04/21 03:54:38;;;;;;;15.07;9.02;;;6.90;95.50;;;;;;5007480;28;20049;-43
2022/04/21 03:57:05;;;;;;;16.15;10.30;;;6.80;95.30;;;;;;4995877;28;20054;-44
2022/04/21 03:59:31;;;;;;;13.30;8.68;;;6.80;95.40;;;;;;4996794;28;20137;-44
2022/04/21 04:02:02;;;;;;;14.27;9.82;;;6.80;95.50;;;;;;5007768;28;20064;-44
2022/04/21 04:04:29;;;;;;;17.67;10.23;;;6.80;95.50;;;;;;5010109;28;20112;-44
2022/04/21 04:12:32;;;;;;;13.02;7.72;;;6.70;96.10;;;;;;5004754;28;20388;-42
2022/04/21 04:14:59;;;;;;;12.50;8.05;;;6.70;95.60;;;;;;5000835;28;20053;-42
2022/04/21 04:17:25;;;;;;;10.85;7.88;;;6.80;95.40;;;;;;5004112;28;20038;-42
2022/04/21 04:19:52;;;;;;;11.18;7.82;;;6.70;95.10;;;;;;5005268;28;20061;-43
2022/04/21 04:22:19;;;;;;;14.05;8.65;;;6.70;94.90;;;;;;5007973;28;20073;-43
2022/04/21 04:24:47;;;;;;;12.50;8.27;;;6.60;95.00;;;;;;5007957;28;20116;-43
2022/04/21 04:27:14;;;;;;;11.70;7.97;;;6.70;94.70;;;;;;5001626;28;20141;-42
2022/04/21 04:29:40;;;;;;;17.42;11.18;;;6.60;94.50;;;;;;5012220;28;20481;-43
2022/04/21 04:32:08;;;;;;;13.95;9.35;;;6.60;95.30;;;;;;5012035;28;20505;-43
2022/04/21 04:34:34;;;;;;;16.83;9.93;;;6.60;95.60;;;;;;5008917;28;20058;-43
2022/04/21 04:37:01;;;;;;;13.70;9.43;;;6.60;96.00;;;;;;5013718;28;20046;-43
2022/04/21 04:39:28;;;;;;;13.73;9.57;;;6.60;95.80;;;;;;5007130;28;20056;-43
2022/04/21 04:44:40;;;;;;;17.00;10.57;;;6.60;95.50;;;;;;5013289;28;20058;-43
2022/04/21 04:47:06;;;;;;;16.40;10.43;;;6.50;95.80;;;;;;5010513;28;20057;-43
2022/04/21 04:49:33;;;;;;;16.48;10.68;;;6.50;96.20;;;;;;5011667;28;20054;-43
2022/04/21 04:51:59;;;;;;;16.75;9.85;;;6.50;96.30;;;;;;5011761;28;20054;-43
2022/04/21 04:54:28;;;;;;;22.08;12.10;;;6.60;96.60;;;;;;5000964;28;20042;-43
2022/04/21 04:56:56;;;;;;;16.23;10.95;;;6.50;97.00;;;;;;5013824;28;20503;-43
2022/04/21 04:59:23;;;;;;;17.02;10.52;;;6.50;97.20;;;;;;5002921;28;20056;-43
2022/04/21 05:01:50;;;;;;;17.10;11.32;;;6.50;97.80;;;;;;5010329;28;20422;-43
2022/04/21 05:04:17;;;;;;;18.35;11.18;;;6.50;97.80;;;;;;5010917;28;20072;-43
2022/04/21 05:06:44;;;;;;;15.98;10.60;;;6.50;98.10;;;;;;5014148;28;20054;-43
2022/04/21 05:09:13;;;;;;;15.70;9.90;;;6.50;98.10;;;;;;5006138;28;20052;-43
2022/04/21 05:11:40;;;;;;;18.50;11.23;;;6.70;98.40;;;;;;5008770;28;20400;-43
2022/04/21 05:14:08;;;;;;;18.25;11.43;;;6.60;98.50;;;;;;5008053;28;20048;-43
2022/04/21 05:16:36;;;;;;;17.95;12.10;;;6.60;98.70;;;;;;5006843;28;20049;-43
2022/04/21 05:19:03;;;;;;;26.95;11.88;;;6.60;98.90;;;;;;5002716;28;20141;-43
2022/04/21 05:21:30;;;;;;;16.80;11.45;;;6.60;99.00;;;;;;5003406;28;20462;-43
2022/04/21 05:23:58;;;;;;;15.50;10.75;;;6.60;98.90;;;;;;5012865;28;20042;-43
2022/04/21 05:26:26;;;;;;;16.05;12.18;;;6.70;99.00;;;;;;5018991;28;20108;-43
2022/04/21 05:28:53;;;;;;;14.68;10.43;;;6.70;99.20;;;;;;5004120;28;20609;-43
2022/04/21 05:31:20;;;;;;;14.98;10.80;;;6.70;99.10;;;;;;5013076;28;20070;-43
2022/04/21 05:33:47;;;;;;;22.30;11.80;;;6.80;99.40;;;;;;5009977;28;20458;-43
2022/04/21 05:36:15;;;;;;;17.45;11.40;;;6.80;99.20;;;;;;5011859;28;20183;-43
2022/04/21 05:38:42;;;;;;;20.50;11.77;;;6.90;99.60;;;;;;5006685;28;20052;-44
2022/04/21 05:41:12;;;;;;;20.02;11.77;;;6.90;99.60;;;;;;5006842;28;20490;-44
2022/04/21 05:43:40;;;;;;;15.63;9.80;;;7.00;99.80;;;;;;5006739;28;20049;-43
2022/04/21 05:46:07;;;;;;;20.38;11.73;;;7.00;99.90;;;;;;5014015;28;20046;-43
2022/04/21 05:48:36;;;;;;;16.08;10.88;;;7.10;99.70;;;;;;5006170;28;20137;-43
2022/04/21 05:51:03;;;;;;;15.63;11.30;;;7.20;99.80;;;;;;5013739;28;20073;-42
2022/04/21 05:53:32;;;;;;;17.10;10.57;;;7.30;99.80;;;;;;5013082;28;20052;-42
2022/04/21 05:55:59;;;;;;;15.30;10.35;;;7.30;99.80;;;;;;5000774;28;20086;-43
2022/04/21 05:58:26;;;;;;;18.52;10.98;;;7.40;99.60;;;;;;5001957;28;20056;-43
2022/04/21 06:00:53;;;;;;;18.35;11.25;;;7.50;99.60;;;;;;5013876;28;20096;-43
2022/04/21 06:03:21;;;;;;;21.77;9.70;;;7.70;99.40;;;;;;5005341;28;20056;-43
2022/04/21 06:05:49;;;;;;;14.45;9.88;;;7.80;99.30;;;;;;5014150;28;20048;-43
2022/04/21 06:08:16;;;;;;;15.93;10.00;;;7.90;99.20;;;;;;5007259;28;20053;-44
2022/04/21 06:10:42;;;;;;;14.85;9.20;;;8.00;99.00;;;;;;5006176;28;20189;-44
2022/04/21 06:13:09;;;;;;;18.05;9.82;;;8.10;98.90;;;;;;5013665;28;20056;-43
2022/04/21 06:15:36;;;;;;;14.50;9.55;;;8.30;98.80;;;;;;5011668;28;20050;-43
2022/04/21 06:18:02;;;;;;;16.80;9.68;;;8.30;98.60;;;;;;5003239;28;20137;-43
2022/04/21 06:20:29;;;;;;;16.40;8.98;;;8.50;98.40;;;;;;5011323;28;20049;-44
2022/04/21 06:22:57;;;;;;;17.30;8.82;;;8.60;98.20;;;;;;5008248;28;20042;-43
2022/04/21 06:25:29;;;;;;;14.15;8.90;;;8.80;98.00;;;;;;5008811;28;20071;-43
2022/04/21 06:27:56;;;;;;;12.85;8.35;;;8.90;97.90;;;;;;5010096;28;20050;-43
2022/04/21 06:30:23;;;;;;;11.63;8.18;;;9.00;97.60;;;;;;5001658;28;20530;-43
2022/04/21 06:32:50;;;;;;;12.15;8.70;;;9.10;97.30;;;;;;5002490;28;20506;-43
2022/04/21 06:35:17;;;;;;;15.20;8.32;;;9.20;97.00;;;;;;4994363;28;20069;-43
2022/04/21 06:37:46;;;;;;;14.43;8.10;;;9.40;96.80;;;;;;4995827;28;20054;-43
2022/04/21 06:40:14;;;;;;;12.55;7.90;;;9.50;96.50;;;;;;5013221;28;20054;-43
2022/04/21 06:42:42;;;;;;;12.90;7.72;;;9.60;96.10;;;;;;5013096;28;20513;-43
2022/04/21 06:48:03;;;;;;;9.80;6.80;;;9.80;95.30;;;;;;5003281;28;20045;-44
2022/04/21 06:50:30;;;;;;;9.43;5.85;;;10.00;95.00;;;;;;5008523;28;20077;-44
2022/04/21 06:52:56;;;;;;;9.32;5.28;;;10.20;94.50;;;;;;5012007;28;20071;-44
2022/04/21 06:55:24;;;;;;;11.95;5.55;;;10.30;93.60;;;;;;5012961;28;20056;-44
2022/04/21 06:57:51;;;;;;;9.50;4.97;;;10.50;93.40;;;;;;5010806;28;20064;-44
2022/04/21 07:00:18;;;;;;;8.82;5.40;;;10.60;93.10;;;;;;5012865;28;20083;-43
2022/04/21 07:02:45;;;;;;;6.97;5.32;;;10.80;92.80;;;;;;5012147;28;20050;-43
2022/04/21 07:05:12;;;;;;;7.35;5.13;;;11.00;92.30;;;;;;5007497;28;20562;-43
2022/04/21 07:07:40;;;;;;;8.35;4.80;;;11.10;91.30;;;;;;5009450;28;20386;-44
2022/04/21 07:10:08;;;;;;;7.97;5.05;;;11.10;91.10;;;;;;5004893;28;20069;-43
2022/04/21 07:12:36;;;;;;;11.82;4.90;;;11.30;90.40;;;;;;5004867;28;20054;-43
2022/04/21 07:15:04;;;;;;;7.78;4.30;;;11.30;90.10;;;;;;5004937;28;20062;-44
2022/04/21 07:17:31;;;;;;;8.18;3.97;;;11.50;90.00;;;;;;5005043;28;20379;-43
2022/04/21 07:19:58;;;;;;;7.43;4.13;;;11.60;89.30;;;;;;4995957;28;20469;-43
2022/04/21 07:22:25;;;;;;;8.70;4.20;;;11.80;88.10;;;;;;5007170;28;20053;-44
2022/04/21 07:24:51;;;;;;;9.15;3.88;;;11.90;87.40;;;;;;5011222;28;20073;-44
2022/04/21 07:27:18;;;;;;;7.75;3.90;;;12.00;86.60;;;;;;5000560;28;20399;-44
2022/04/21 07:29:46;;;;;;;6.78;4.05;;;12.10;86.70;;;;;;5005552;28;20056;-43
2022/04/21 07:32:13;;;;;;;5.75;3.38;;;12.30;86.20;;;;;;5010586;28;20050;-44
2022/04/21 07:34:40;;;;;;;8.43;3.40;;;12.60;86.10;;;;;;5012160;28;20133;-44
2022/04/21 07:37:07;;;;;;;8.10;3.38;;;12.80;84.90;;;;;;5011339;28;20056;-44
2022/04/21 07:39:33;;;;;;;6.22;3.20;;;12.90;82.70;;;;;;5000800;28;20422;-44
2022/04/21 07:42:00;;;;;;;5.05;3.40;;;13.10;82.50;;;;;;4994008;28;20061;-43
2022/04/21 07:44:27;;;;;;;5.18;2.90;;;13.20;80.80;;;;;;5011563;28;20520;-44
2022/04/21 07:46:55;;;;;;;4.95;3.13;;;13.30;80.60;;;;;;5003849;28;20133;-44
2022/04/21 07:54:51;;;;;;;7.22;2.60;;;13.80;77.50;;;;;;4996444;28;20125;-44
2022/04/21 07:57:18;;;;;;;3.75;2.38;;;13.90;76.30;;;;;;4999919;28;20057;-43
2022/04/21 07:59:45;;;;;;;3.60;2.50;;;13.90;74.90;;;;;;5006327;28;20058;-44
2022/04/21 08:02:13;;;;;;;4.30;2.70;;;13.90;74.10;;;;;;4995321;28;20085;-44
2022/04/21 08:04:39;;;;;;;6.55;2.40;;;14.00;72.70;;;;;;5014697;28;20042;-43
2022/04/21 08:07:06;;;;;;;4.55;2.72;;;14.00;72.50;;;;;;5014976;28;20065;-43
2022/04/21 08:09:33;;;;;;;6.43;2.88;;;14.10;72.10;;;;;;5005140;28;20050;-43
2022/04/21 08:12:00;;;;;;;4.88;2.95;;;14.20;72.30;;;;;;5015952;28;20049;-43
2022/04/21 08:14:26;;;;;;;4.47;2.75;;;14.30;71.30;;;;;;5012619;28;20528;-43
2022/04/21 08:16:53;;;;;;;6.20;2.60;;;14.40;70.50;;;;;;5012168;28;20057;-43
2022/04/21 08:19:21;;;;;;;5.03;2.85;;;14.50;70.80;;;;;;5004225;28;20403;-45
2022/04/21 08:21:48;;;;;;;7.10;2.72;;;14.70;70.10;;;;;;5010404;28;20480;-43
2022/04/21 08:32:43;;;;;;;6.07;2.75;;;15.10;68.20;;;;;;5006580;28;20050;-43
2022/04/21 08:35:13;;;;;;;;;;;15.30;68.00;;;;;;5015433;28;20073;-43
2022/04/21 08:37:40;;;;;;;4.45;2.90;;;15.40;67.50;;;;;;5009309;28;19921;-43
2022/04/21 08:40:08;;;;;;;5.13;2.75;;;15.50;67.90;;;;;;5004515;28;20435;-43
2022/04/21 08:42:37;;;;;;;4.55;2.95;;;15.60;67.00;;;;;;5012024;28;20402;-43
2022/04/21 08:45:04;;;;;;;6.20;3.00;;;15.60;66.50;;;;;;5003909;28;20057;-43
2022/04/21 08:47:31;;;;;;;5.43;2.65;;;15.70;65.90;;;;;;5015769;28;20402;-44
2022/04/21 08:50:02;;;;;;;6.05;3.05;;;15.70;65.90;;;;;;5013585;28;20057;-44
2022/04/21 08:52:31;;;;;;;5.35;3.15;;;15.70;65.50;;;;;;5005238;28;20499;-43
2022/04/21 08:54:57;;;;;;;5.18;2.90;;;15.90;65.80;;;;;;5010664;28;20505;-44
2022/04/21 08:57:24;;;;;;;5.82;2.80;;;16.00;65.40;;;;;;5014688;28;20050;-44
2022/04/21 08:59:51;;;;;;;6.85;2.97;;;16.10;65.30;;;;;;5007542;28;20056;-44
2022/04/21 09:02:17;;;;;;;7.20;3.30;;;16.30;64.90;;;;;;5014365;28;20081;-44
2022/04/21 09:04:44;;;;;;;5.43;3.63;;;16.30;63.70;;;;;;5015252;28;20048;-43
2022/04/21 09:07:14;;;;;;;7.93;2.92;;;16.40;63.40;;;;;;4999672;28;20046;-44
2022/04/21 09:09:54;;;;;;;6.28;2.70;;;16.50;63.40;;;;;;5005039;28;20398;-44
2022/04/21 09:12:20;;;;;;;6.93;3.20;;;16.60;63.40;;;;;;5009727;28;20552;-44
2022/04/21 09:14:47;;;;;;;7.57;3.13;;;16.60;62.70;;;;;;5007599;28;20140;-43
2022/04/21 09:17:14;;;;;;;5.43;2.72;;;16.60;61.80;;;;;;5013646;28;20479;-44
2022/04/21 09:19:45;;;;;;;9.32;3.10;;;16.60;62.00;;;;;;5004371;28;20076;-45
2022/04/21 09:22:12;;;;;;;6.05;2.65;;;16.70;62.30;;;;;;5010854;28;20048;-43
2022/04/21 09:24:39;;;;;;;4.95;3.10;;;16.90;62.20;;;;;;5014591;28;20409;-44
2022/04/21 09:27:07;;;;;;;7.97;3.33;;;17.00;61.30;;;;;;5008040;28;20064;-43
2022/04/21 09:29:35;;;;;;;6.38;3.67;;;17.00;60.50;;;;;;4997160;28;20046;-43
2022/04/21 09:32:03;;;;;;;5.28;3.20;;;17.20;60.80;;;;;;5005701;28;20472;-44
2022/04/21 09:34:30;;;;;;;6.43;2.60;;;17.20;60.40;;;;;;5006903;28;20077;-44
2022/04/21 09:36:57;;;;;;;5.07;3.05;;;17.40;60.10;;;;;;5014699;28;20048;-43
2022/04/21 09:39:24;;;;;;;4.30;2.60;;;17.50;59.60;;;;;;5013180;28;20054;-44
2022/04/21 09:41:52;;;;;;;5.97;3.20;;;17.60;59.40;;;;;;5003389;28;20056;-43
2022/04/21 09:47:05;;;;;;;4.78;2.30;;;17.90;58.70;;;;;;5007796;28;20051;-43
2022/04/21 09:49:36;;;;;;;5.00;2.50;;;17.80;58.00;;;;;;5005937;28;20498;-44
2022/04/21 09:52:03;;;;;;;6.57;2.58;;;17.70;57.30;;;;;;5013107;28;20054;-43
2022/04/21 09:54:30;;;;;;;7.53;2.47;;;17.60;58.10;;;;;;5014090;28;20405;-44
2022/04/21 09:56:58;;;;;;;6.93;2.92;;;17.60;57.50;;;;;;4995444;28;20133;-44
2022/04/21 09:59:26;;;;;;;8.10;3.00;;;17.70;57.70;;;;;;5000830;28;20498;-44
2022/04/21 10:01:52;;;;;;;4.32;2.70;;;17.90;57.50;;;;;;5006106;28;20050;-44
2022/04/21 10:04:19;;;;;;;4.68;2.53;;;18.10;57.40;;;;;;5005289;28;20129;-43
2022/04/21 10:06:46;;;;;;;5.38;2.55;;;18.30;56.70;;;;;;5013033;28;20057;-44
2022/04/21 10:09:13;;;;;;;3.67;2.40;;;18.30;56.60;;;;;;5009606;28;20242;-44
2022/04/21 10:11:42;;;;;;;5.68;2.35;;;18.50;56.50;;;;;;5003010;28;20060;-45
2022/04/21 10:14:11;;;;;;;5.45;2.30;;;18.60;55.50;;;;;;5013863;28;20468;-44
2022/04/21 10:16:42;;;;;;;4.07;2.40;;;18.60;55.70;;;;;;5007093;28;20173;-44
2022/04/21 10:19:09;;;;;;;9.32;2.38;;;18.70;55.20;;;;;;5013703;28;20045;-44
2022/04/21 10:21:38;;;;;;;4.88;2.40;;;18.70;54.70;;;;;;5013221;28;20054;-44
2022/04/21 10:24:05;;;;;;;6.38;2.63;;;18.90;54.60;;;;;;5014194;28;20042;-44
2022/04/21 10:26:36;;;;;;;6.40;2.90;;;18.80;54.00;;;;;;5011819;28;20053;-44
2022/04/21 10:29:10;;;;;;;6.10;2.80;;;18.90;53.70;;;;;;5004622;28;20055;-44
2022/04/21 10:31:46;;;;;;;3.30;2.92;;;18.90;52.90;;;;;;5012315;28;20080;-45
2022/04/21 10:34:36;;;;;;;6.80;2.50;;;18.90;53.40;;;;;;5013384;28;20484;-44
2022/04/21 10:37:07;;;;;;;4.97;2.42;;;19.00;53.10;;;;;;5005362;28;20137;-44
2022/04/21 10:39:34;;;;;;;9.32;2.95;;;18.90;53.10;;;;;;5001313;28;20133;-44
2022/04/21 10:42:14;;;;;;;5.82;2.85;;;18.90;53.40;;;;;;5009632;28;20052;-44
2022/04/21 10:44:42;;;;;;;6.97;2.85;;;18.80;52.70;;;;;;5006523;28;20049;-44
2022/04/21 10:47:33;;;;;;;7.25;2.78;;;18.70;52.80;;;;;;5008415;28;20115;-44
2022/04/21 10:50:01;;;;;;;3.85;2.38;;;18.80;52.90;;;;;;5002530;28;20134;-44
2022/04/21 10:58:53;;;;;;;7.03;2.65;;;18.80;52.10;;;;;;4999357;28;20498;-44
2022/04/21 11:01:37;;;;;;;3.63;2.55;;;18.90;51.00;;;;;;5012876;28;20068;-44
2022/04/21 11:04:25;;;;;;;6.90;2.95;;;19.00;51.40;;;;;;5002256;28;20057;-44
2022/04/21 11:06:54;;;;;;;10.43;3.08;;;18.90;51.60;;;;;;5006154;28;20081;-44
2022/04/21 11:09:37;;;;;;;6.55;3.10;;;18.80;51.40;;;;;;5011758;28;20061;-44
2022/04/21 11:12:05;;;;;;;4.88;2.75;;;18.80;52.50;;;;;;4994855;28;20054;-44
2022/04/21 11:14:33;;;;;;;6.88;3.08;;;18.90;52.10;;;;;;5000384;28;20050;-44
2022/04/21 11:17:00;;;;;;;5.18;2.80;;;19.10;52.80;;;;;;5011074;28;20057;-44
2022/04/21 11:19:40;;;;;;;6.38;2.90;;;19.20;51.90;;;;;;5006619;28;20076;-44
2022/04/21 11:22:07;;;;;;;4.47;2.75;;;19.40;51.70;;;;;;5009801;28;20045;-44
2022/04/21 11:25:03;;;;;;;8.50;3.03;;;19.40;51.10;;;;;;5002410;28;20050;-45
2022/04/21 11:27:31;;;;;;;8.18;2.30;;;19.50;49.50;;;;;;5006250;28;20490;-44
2022/04/21 11:30:02;;;;;;;6.97;2.47;;;19.60;51.10;;;;;;5012208;28;20060;-43
2022/04/21 11:32:29;;;;;;;4.63;2.88;;;19.70;50.90;;;;;;5010949;28;20545;-44
2022/04/21 11:35:01;;;;;;;5.88;2.60;;;19.80;51.00;;;;;;5009882;28;20054;-44
2022/04/21 11:37:47;;;;;;;4.38;2.80;;;20.10;50.60;;;;;;5003105;28;20140;-44
2022/04/21 11:40:31;;;;;;;5.65;2.08;;;20.20;49.10;;;;;;5009708;28;20037;-44
2022/04/21 11:42:58;;;;;;;3.58;1.75;;;20.30;47.40;;;;;;5007028;28;20133;-44
2022/04/21 11:45:25;;;;;;;4.78;1.90;;;20.20;48.20;;;;;;5001309;28;20108;-45
2022/04/21 11:47:52;;;;;;;3.30;2.30;;;20.30;48.00;;;;;;5011680;28;20050;-44
2022/04/21 11:50:25;;;;;;;4.65;2.88;;;20.40;47.80;;;;;;5011502;28;20045;-44
2022/04/21 11:52:55;;;;;;;3.90;2.90;;;20.30;47.40;;;;;;5000917;28;20046;-44
2022/04/21 11:55:25;;;;;;;6.28;2.75;;;20.10;48.40;;;;;;5008603;28;20490;-44
2022/04/21 11:57:52;;;;;;;4.45;2.50;;;20.00;48.50;;;;;;5012152;28;20056;-45
2022/04/21 12:06:28;;;;;;;6.70;2.92;;;20.00;48.90;;;;;;5012154;28;20383;-44
2022/04/21 12:08:45;;;;;;;5.78;3.00;;;20.30;48.30;;;;;;5008020;28;20050;-45
2022/04/21 12:11:13;;;;;;;5.97;3.05;;;20.20;49.00;;;;;;4999418;28;20085;-44
2022/04/21 12:13:40;;;;;;;7.20;2.38;;;20.30;50.00;;;;;;4993060;28;20376;-44
2022/04/21 12:16:50;;;;;;;5.50;2.95;;;20.40;49.10;;;;;;5008533;28;20050;-44
2022/04/21 12:19:28;;;;;;;6.15;3.03;;;20.40;48.40;;;;;;4960765;28;20073;-44
2022/04/21 12:22:01;;;;;;;7.32;2.67;;;20.40;47.40;;;;;;5002334;28;20064;-44
2022/04/21 12:24:33;;;;;;;5.78;2.95;;;20.30;47.60;;;;;;4998209;28;20140;-44
2022/04/21 12:27:01;;;;;;;6.20;3.10;;;20.40;47.90;;;;;;5007771;28;20479;-45
2022/04/21 12:29:29;;;;;;;7.28;3.58;;;20.40;48.70;;;;;;5006585;28;20089;-44
2022/04/21 12:31:57;;;;;;;8.45;3.38;;;20.60;48.40;;;;;;4992562;28;20141;-45
2022/04/21 12:34:26;;;;;;;4.93;3.20;;;20.70;48.30;;;;;;5000428;28;20120;-44
2022/04/21 12:36:54;;;;;;;7.28;3.20;;;20.70;48.20;;;;;;4993004;28;20046;-44
2022/04/21 12:39:22;;;;;;;3.78;3.10;;;20.70;47.90;;;;;;5004247;28;20046;-44
2022/04/21 12:41:49;;;;;;;7.43;3.55;;;20.70;47.80;;;;;;5001977;28;20145;-45
2022/04/21 12:44:18;;;;;;;8.25;3.40;;;20.60;47.70;;;;;;4992584;28;20128;-44
2022/04/21 12:47:01;;;;;;;7.68;3.75;;;20.50;48.50;;;;;;5009063;28;20475;-44
2022/04/21 12:49:50;;;;;;;10.63;3.70;;;20.60;48.40;;;;;;5000760;28;20069;-45
2022/04/21 12:52:28;;;;;;;6.57;4.22;;;20.70;48.00;;;;;;5012171;28;20056;-44
2022/04/21 12:54:56;;;;;;;6.65;4.00;;;20.80;47.50;;;;;;5015598;28;20046;-44
2022/04/21 12:57:23;;;;;;;8.32;3.35;;;20.70;48.30;;;;;;5005662;28;20368;-44
2022/04/21 12:59:50;;;;;;;7.15;4.05;;;20.70;49.30;;;;;;5015337;28;20046;-44
2022/04/21 13:02:17;;;;;;;6.68;3.67;;;20.80;49.20;;;;;;5015307;28;20050;-44
2022/04/21 13:04:44;;;;;;;4.63;3.58;;;20.90;49.00;;;;;;4996254;28;20483;-44
2022/04/21 13:07:10;;;;;;;5.70;3.67;;;21.00;49.00;;;;;;5004930;28;20409;-45
2022/04/21 13:09:37;;;;;;;6.65;3.80;;;21.00;48.70;;;;;;5012451;28;20049;-45
2022/04/21 13:12:07;;;;;;;7.80;4.13;;;21.10;48.20;;;;;;5007937;28;20054;-44
2022/04/21 13:14:33;;;;;;;6.07;3.60;;;20.90;47.70;;;;;;5013761;28;20391;-44
2022/04/21 13:17:00;;;;;;;6.95;4.05;;;20.90;48.70;;;;;;5010775;28;20062;-44
2022/04/21 13:19:26;;;;;;;5.20;3.92;;;20.90;47.90;;;;;;5000246;28;20069;-44
2022/04/21 13:21:52;;;;;;;8.73;4.07;;;20.80;48.30;;;;;;5002602;28;20056;-44
2022/04/21 13:24:19;;;;;;;9.30;4.07;;;20.90;48.50;;;;;;5014945;28;20050;-44
2022/04/21 13:26:46;;;;;;;5.47;3.95;;;21.10;48.90;;;;;;5007018;28;20049;-44
2022/04/21 13:29:14;;;;;;;6.63;3.75;;;21.30;48.40;;;;;;5015446;28;20402;-44
2022/04/21 13:34:25;;;;;;;11.30;3.95;;;21.00;48.00;;;;;;5014257;28;20054;-44
2022/04/21 13:36:51;;;;;;;6.32;3.97;;;20.90;48.30;;;;;;5003491;28;20057;-44
2022/04/21 13:39:18;;;;;;;7.00;3.95;;;20.80;47.90;;;;;;5005388;28;20097;-45
2022/04/21 13:41:45;;;;;;;8.50;4.20;;;20.70;48.50;;;;;;5010432;28;20050;-45
2022/04/21 13:44:12;;;;;;;6.53;3.95;;;20.80;49.20;;;;;;5005113;28;20058;-44
2022/04/21 13:46:40;;;;;;;5.60;4.28;;;20.80;48.40;;;;;;5001925;28;20054;-44
2022/04/21 13:49:07;;;;;;;10.15;4.18;;;20.90;48.80;;;;;;5010451;28;20053;-44